レイキャビク/ケフラヴィーク の空港の天気 - METARとTAF

ケフラヴィーク国際空港 ( BIKF / KEF ) - アイスランド ケプラヴィーク
飛行場実況気象(Metar)
観測時間10/23 13:00 GMT (10/23 13:00 UTC)
風向・風速東南東 4m/s
視程10km以上
天気現象周辺でしゅう雨
少しの雲 雲底高度 700m
全天の4割程度の雲 雲底高度 1430m
全天の8割程度の雲 雲底高度 2440m
気温9℃
湿度93%
気圧990hPa
METARBIKF 231300Z 11007KT 9999 VCSH FEW023 SCT047 BKN080 09/08 Q0990
過去の天気等 Google飛行場航空写真 Wunderground天気予報

過去48時間のMETAR

飛行場予報(TAF)
発表時間: 10/23 10:59 GMT (10/23 10:59 UTC)
予報対象時間: 23日12時 GMT ~ 24日12時 GMT
風向・風速東 6m/s
視程10km以上
少しの雲 雲底高度 700m
全天の4割程度の雲 雲底高度 1,010m
全天の8割程度の雲 雲底高度 1,370m
24日6時 GMT ~ 24日9時 GMT に徐々に
風向・風速北北東 5m/s
視程10km以上
なし
TAF BIKF 231059Z 2312/2412 09012KT 9999 FEW023 SCT033 BKN045 TX09/2315Z TN04/2406Z
BECMG 2406/2409 03010KT CAVOK